Time;durP1;ratioP1;P1;durP2;ratioP2;P2;SDS_P1;SDS_P2;PMS_P1;PMS_P2;Temp;Humidity;BMP_temperature;BMP_pressure;BME280_temperature;BME280_humidity;BME280_pressure;Samples;Min_cycle;Max_cycle;Signal;HPM_P1;HPM_P2
2022/12/07 00:01:28;;;;;;;21.30;11.65;;;;;;;;;;5066038;28;20039;-57
2022/12/07 00:04:04;;;;;;;21.67;11.32;;;;;;;;;;5052114;28;20444;-57
2022/12/07 00:06:29;;;;;;;19.02;11.32;;;;;;;;;;5071070;28;20031;-58
2022/12/07 00:08:55;;;;;;;18.50;10.60;;;;;;;;;;5067328;28;20424;-57
2022/12/07 00:11:22;;;;;;;21.60;12.80;;;;;;;;;;5070465;28;20094;-59
2022/12/07 00:13:52;;;;;;;21.85;13.68;;;;;;;;;;5069537;28;20032;-58
2022/12/07 00:16:20;;;;;;;24.00;13.43;;;;;;;;;;5071018;28;20056;-58
2022/12/07 00:18:45;;;;;;;22.35;13.52;;;;;;;;;;5052470;28;20109;-59
2022/12/07 00:21:14;;;;;;;23.00;14.00;;;;;;;;;;5069421;28;20536;-58
2022/12/07 00:23:40;;;;;;;24.40;14.95;;;;;;;;;;5065528;28;20048;-56
2022/12/07 00:26:15;;;;;;;24.33;14.68;;;;;;;;;;5063338;28;20032;-61
2022/12/07 00:28:40;;;;;;;22.25;13.93;;;;;;;;;;5063051;28;20040;-59
2022/12/07 00:31:08;;;;;;;24.20;14.32;;;;;;;;;;5061821;28;20427;-61
2022/12/07 00:33:35;;;;;;;22.67;14.48;;;;;;;;;;5069032;28;20043;-59
2022/12/07 00:36:02;;;;;;;25.52;14.57;;;;;;;;;;5061504;28;20039;-58
2022/12/07 00:38:30;;;;;;;24.00;14.13;;;;;;;;;;5068591;28;20036;-57
2022/12/07 00:41:02;;;;;;;24.05;13.73;;;;;;;;;;5055900;28;20087;-60
2022/12/07 00:43:28;;;;;;;24.52;14.98;;;;;;;;;;5069184;28;20353;-60
2022/12/07 00:45:54;;;;;;;24.98;15.05;;;;;;;;;;5070506;28;20112;-58
2022/12/07 00:48:20;;;;;;;22.85;14.48;;;;;;;;;;5058146;28;20047;-58
2022/12/07 00:50:45;;;;;;;25.25;15.48;;;;;;;;;;5054496;28;20456;-59
2022/12/07 00:53:11;;;;;;;26.77;16.08;;;;;;;;;;5071906;28;20036;-59
2022/12/07 00:55:37;;;;;;;26.65;16.42;;;;;;;;;;5047432;28;20485;-59
2022/12/07 00:58:03;;;;;;;26.73;15.82;;;;;;;;;;5064474;28;20132;-57
2022/12/07 01:00:30;;;;;;;29.27;15.57;;;;;;;;;;5068586;28;20032;-59
2022/12/07 01:02:55;;;;;;;25.65;15.65;;;;;;;;;;5050478;28;20028;-59
2022/12/07 01:05:20;;;;;;;25.98;15.38;;;;;;;;;;5070689;28;20028;-57
2022/12/07 01:07:46;;;;;;;25.80;16.08;;;;;;;;;;5056274;28;20028;-57
2022/12/07 01:10:12;;;;;;;27.35;15.82;;;;;;;;;;5070641;28;20024;-60
2022/12/07 01:12:38;;;;;;;25.58;15.70;;;;;;;;;;5049078;28;20071;-58
2022/12/07 01:15:04;;;;;;;26.73;16.33;;;;;;;;;;5069126;28;20064;-57
2022/12/07 01:17:30;;;;;;;24.33;15.95;;;;;;;;;;5068922;28;20035;-57
2022/12/07 01:19:55;;;;;;;28.52;17.60;;;;;;;;;;5066535;28;20040;-58
2022/12/07 01:22:20;;;;;;;27.10;15.93;;;;;;;;;;5066625;28;20111;-58
2022/12/07 01:24:47;;;;;;;27.30;16.90;;;;;;;;;;5070077;28;20024;-60
2022/12/07 01:27:13;;;;;;;27.40;16.27;;;;;;;;;;5069668;28;20033;-59
2022/12/07 01:29:39;;;;;;;34.13;17.92;;;;;;;;;;5060102;28;20037;-60
2022/12/07 01:32:04;;;;;;;30.58;16.45;;;;;;;;;;5063271;28;20044;-58
2022/12/07 01:34:30;;;;;;;28.98;16.15;;;;;;;;;;5068503;28;20503;-57
2022/12/07 01:36:55;;;;;;;28.15;16.17;;;;;;;;;;5070889;28;20059;-58
2022/12/07 01:39:21;;;;;;;24.95;14.90;;;;;;;;;;5067361;28;20052;-58
2022/12/07 01:41:47;;;;;;;29.10;17.08;;;;;;;;;;5069455;28;20032;-60
2022/12/07 01:44:32;;;;;;;27.65;15.23;;;;;;;;;;5072745;28;20354;-60
2022/12/07 01:47:03;;;;;;;29.05;15.98;;;;;;;;;;5068811;28;20401;-60
2022/12/07 01:49:28;;;;;;;28.85;16.42;;;;;;;;;;5057196;28;20492;-58
2022/12/07 01:52:05;;;;;;;29.60;16.92;;;;;;;;;;5065800;28;20041;-57
2022/12/07 01:54:32;;;;;;;26.98;16.00;;;;;;;;;;5071871;28;20028;-59
2022/12/07 01:56:59;;;;;;;26.25;15.57;;;;;;;;;;5072991;28;20140;-58
2022/12/07 01:59:26;;;;;;;25.00;14.77;;;;;;;;;;5070295;28;20039;-58
2022/12/07 02:01:53;;;;;;;24.50;12.07;;;;;;;;;;5056342;28;20036;-58
2022/12/07 02:04:19;;;;;;;26.52;14.57;;;;;;;;;;5066301;28;20111;-58
2022/12/07 02:06:45;;;;;;;25.45;14.82;;;;;;;;;;5068635;28;20486;-59
2022/12/07 02:09:11;;;;;;;29.27;15.20;;;;;;;;;;5074090;28;20385;-61
2022/12/07 02:11:36;;;;;;;25.85;14.88;;;;;;;;;;5070075;28;20033;-58
2022/12/07 02:14:02;;;;;;;23.90;14.45;;;;;;;;;;5074177;28;20035;-59
2022/12/07 02:16:38;;;;;;;28.20;16.40;;;;;;;;;;5071975;28;20524;-59
2022/12/07 02:19:41;;;;;;;24.55;14.95;;;;;;;;;;5071682;28;20370;-59
2022/12/07 02:22:18;;;;;;;27.50;15.68;;;;;;;;;;5063462;28;20089;-57
2022/12/07 02:25:20;;;;;;;29.23;15.38;;;;;;;;;;5072710;28;20123;-58
2022/12/07 02:27:50;;;;;;;29.38;15.65;;;;;;;;;;5073223;28;20028;-59
2022/12/07 02:30:18;;;;;;;26.10;15.95;;;;;;;;;;5071749;28;20123;-62
2022/12/07 02:32:59;;;;;;;31.00;16.50;;;;;;;;;;5073949;28;20044;-58
2022/12/07 02:35:33;;;;;;;31.33;16.30;;;;;;;;;;5071219;28;20476;-59
2022/12/07 02:38:22;;;;;;;31.40;16.65;;;;;;;;;;5070647;28;20052;-58
2022/12/07 02:40:52;;;;;;;26.83;15.95;;;;;;;;;;5059712;28;20480;-57
2022/12/07 02:43:25;;;;;;;28.13;15.95;;;;;;;;;;5072988;28;20028;-56
2022/12/07 02:45:53;;;;;;;28.15;15.65;;;;;;;;;;5071725;28;20079;-57
2022/12/07 02:48:20;;;;;;;29.40;16.65;;;;;;;;;;5054232;28;20039;-60
2022/12/07 02:50:51;;;;;;;31.35;16.38;;;;;;;;;;5072039;28;20115;-57
2022/12/07 02:53:37;;;;;;;29.15;16.25;;;;;;;;;;5072552;28;20480;-61
2022/12/07 02:56:23;;;;;;;29.90;16.52;;;;;;;;;;5073449;28;20036;-58
2022/12/07 02:59:17;;;;;;;30.25;16.98;;;;;;;;;;5051697;28;20029;-57
2022/12/07 03:01:55;;;;;;;34.08;16.60;;;;;;;;;;5071535;28;20037;-58
2022/12/07 03:04:39;;;;;;;32.13;16.38;;;;;;;;;;5071164;28;20389;-59
2022/12/07 03:07:19;;;;;;;34.17;16.58;;;;;;;;;;5072934;28;20052;-59
2022/12/07 03:10:02;;;;;;;35.43;16.37;;;;;;;;;;5073000;28;20040;-59
2022/12/07 03:12:51;;;;;;;33.08;16.40;;;;;;;;;;5068722;28;20331;-58
2022/12/07 03:15:31;;;;;;;28.20;15.85;;;;;;;;;;5049434;28;20052;-60
2022/12/07 03:17:59;;;;;;;29.02;16.58;;;;;;;;;;5068399;28;20098;-61
2022/12/07 03:20:26;;;;;;;28.92;16.08;;;;;;;;;;5069779;28;20401;-59
2022/12/07 03:22:54;;;;;;;34.20;16.95;;;;;;;;;;5069861;28;20090;-61
2022/12/07 03:25:19;;;;;;;33.80;17.48;;;;;;;;;;5069031;28;20031;-61
2022/12/07 03:27:57;;;;;;;29.83;16.23;;;;;;;;;;5065645;28;20041;-58
2022/12/07 03:30:27;;;;;;;38.22;18.00;;;;;;;;;;5066661;28;20058;-56
2022/12/07 03:33:03;;;;;;;35.47;18.33;;;;;;;;;;5071620;28;20071;-59
2022/12/07 03:35:34;;;;;;;34.58;17.50;;;;;;;;;;5058175;28;20029;-57
2022/12/07 03:38:17;;;;;;;33.55;18.23;;;;;;;;;;5071760;28;20085;-58
2022/12/07 03:40:56;;;;;;;32.35;17.40;;;;;;;;;;5070250;28;20044;-59
2022/12/07 03:43:22;;;;;;;33.55;17.77;;;;;;;;;;5073124;28;20043;-61
2022/12/07 03:46:25;;;;;;;31.77;17.40;;;;;;;;;;5070457;28;20111;-60
2022/12/07 03:49:38;;;;;;;31.65;17.30;;;;;;;;;;5071976;28;20024;-59
2022/12/07 03:52:23;;;;;;;31.70;17.00;;;;;;;;;;4988067;28;20049;-58
2022/12/07 03:55:01;;;;;;;32.08;17.20;;;;;;;;;;5050821;28;20051;-60
2022/12/07 03:57:30;;;;;;;35.05;17.15;;;;;;;;;;5068740;28;20028;-59
2022/12/07 03:59:57;;;;;;;32.22;17.15;;;;;;;;;;5075476;28;20041;-58
2022/12/07 04:02:24;;;;;;;38.08;18.40;;;;;;;;;;5069491;28;20131;-58
2022/12/07 04:04:50;;;;;;;33.55;17.83;;;;;;;;;;5070910;28;20033;-58
2022/12/07 04:07:15;;;;;;;37.30;17.92;;;;;;;;;;5059280;28;20385;-60
2022/12/07 04:09:41;;;;;;;35.58;17.25;;;;;;;;;;5071921;28;20025;-58
2022/12/07 04:12:06;;;;;;;29.27;17.48;;;;;;;;;;5052618;28;20067;-58
2022/12/07 04:14:32;;;;;;;32.10;16.52;;;;;;;;;;5066946;28;20036;-58
2022/12/07 04:16:58;;;;;;;35.00;17.30;;;;;;;;;;5068975;28;20028;-55
2022/12/07 04:19:29;;;;;;;36.33;18.15;;;;;;;;;;5064925;28;20051;-58
2022/12/07 04:21:55;;;;;;;31.42;16.27;;;;;;;;;;5069004;28;20098;-60
2022/12/07 04:24:21;;;;;;;35.88;17.20;;;;;;;;;;5061547;28;20056;-61
2022/12/07 04:26:47;;;;;;;32.75;16.85;;;;;;;;;;5071159;28;20485;-59
2022/12/07 04:29:14;;;;;;;31.27;16.35;;;;;;;;;;5068620;28;20107;-58
2022/12/07 04:31:40;;;;;;;31.00;16.92;;;;;;;;;;5067660;28;20090;-60
2022/12/07 04:34:06;;;;;;;35.15;17.17;;;;;;;;;;5053270;28;20040;-60
2022/12/07 04:36:32;;;;;;;36.40;18.20;;;;;;;;;;5070207;28;20039;-60
2022/12/07 04:38:58;;;;;;;30.98;16.23;;;;;;;;;;5071500;28;20032;-61
2022/12/07 04:41:27;;;;;;;31.13;17.23;;;;;;;;;;5052016;28;20040;-59
2022/12/07 04:43:57;;;;;;;37.13;16.55;;;;;;;;;;5066432;28;20035;-60
2022/12/07 04:46:24;;;;;;;29.92;15.88;;;;;;;;;;5071774;28;20035;-59
2022/12/07 04:48:50;;;;;;;30.10;15.95;;;;;;;;;;5070122;28;20040;-60
2022/12/07 04:51:20;;;;;;;31.92;15.68;;;;;;;;;;5072038;28;20028;-59
2022/12/07 04:53:45;;;;;;;26.05;14.60;;;;;;;;;;5071670;28;20449;-59
2022/12/07 04:56:11;;;;;;;30.05;14.57;;;;;;;;;;5072169;28;20049;-59
2022/12/07 04:58:36;;;;;;;29.33;14.88;;;;;;;;;;5070751;28;20032;-58
2022/12/07 05:01:01;;;;;;;26.98;14.43;;;;;;;;;;5071644;28;20029;-57
2022/12/07 05:03:27;;;;;;;28.60;15.35;;;;;;;;;;5069892;28;20056;-59
2022/12/07 05:05:52;;;;;;;26.35;14.27;;;;;;;;;;5069695;28;20103;-59
2022/12/07 05:08:17;;;;;;;26.98;14.23;;;;;;;;;;5071339;28;20028;-59
2022/12/07 05:10:43;;;;;;;31.83;15.27;;;;;;;;;;5071079;28;20028;-59
2022/12/07 05:13:08;;;;;;;32.60;13.98;;;;;;;;;;5071894;28;20041;-59
2022/12/07 05:15:34;;;;;;;25.70;14.18;;;;;;;;;;5071122;28;20115;-59
2022/12/07 05:17:59;;;;;;;24.17;13.73;;;;;;;;;;5072019;28;20025;-58
2022/12/07 05:20:25;;;;;;;25.65;14.23;;;;;;;;;;5070085;28;20044;-58
2022/12/07 05:22:50;;;;;;;27.08;13.70;;;;;;;;;;5071310;28;20021;-57
2022/12/07 05:25:15;;;;;;;25.05;14.07;;;;;;;;;;5071447;28;20500;-59
2022/12/07 05:27:41;;;;;;;27.08;14.50;;;;;;;;;;5070995;28;20032;-58
2022/12/07 05:30:07;;;;;;;25.15;13.38;;;;;;;;;;5071563;28;20103;-59
2022/12/07 05:32:32;;;;;;;26.83;14.07;;;;;;;;;;5068696;28;20436;-58
2022/12/07 05:34:58;;;;;;;23.80;14.10;;;;;;;;;;5071516;28;20036;-59
2022/12/07 05:37:23;;;;;;;25.48;13.18;;;;;;;;;;5071055;28;20078;-60
2022/12/07 05:39:48;;;;;;;26.58;13.95;;;;;;;;;;5071365;28;20078;-56
2022/12/07 05:42:14;;;;;;;26.75;12.63;;;;;;;;;;5071569;28;20028;-59
2022/12/07 05:44:45;;;;;;;23.42;12.55;;;;;;;;;;5070981;28;20036;-58
2022/12/07 05:47:13;;;;;;;24.42;13.98;;;;;;;;;;5070197;28;20381;-57
2022/12/07 05:49:38;;;;;;;23.80;13.02;;;;;;;;;;5070502;28;20041;-60
2022/12/07 05:52:04;;;;;;;26.58;13.77;;;;;;;;;;5053560;28;20028;-59
2022/12/07 05:54:29;;;;;;;23.70;13.48;;;;;;;;;;5070733;28;20056;-59
2022/12/07 05:56:55;;;;;;;25.42;13.57;;;;;;;;;;5071634;28;20131;-58
2022/12/07 05:59:24;;;;;;;25.92;13.82;;;;;;;;;;5071462;28;20032;-58
2022/12/07 06:01:59;;;;;;;21.80;12.02;;;;;;;;;;5069108;28;20032;-60
2022/12/07 06:04:27;;;;;;;25.63;13.10;;;;;;;;;;5069703;28;20142;-59
2022/12/07 06:06:53;;;;;;;27.42;12.63;;;;;;;;;;5070226;28;20090;-57
2022/12/07 06:09:20;;;;;;;22.15;12.15;;;;;;;;;;5071146;28;20032;-58
2022/12/07 06:14:29;;;;;;;21.90;12.23;;;;;;;;;;5070338;28;20040;-60
2022/12/07 06:16:55;;;;;;;23.13;11.95;;;;;;;;;;5071694;28;20024;-58
2022/12/07 06:19:20;;;;;;;23.23;13.00;;;;;;;;;;5069627;28;20185;-56
2022/12/07 06:21:46;;;;;;;24.90;13.13;;;;;;;;;;5070315;28;20036;-59
2022/12/07 06:24:13;;;;;;;26.02;11.98;;;;;;;;;;5070053;28;20036;-57
2022/12/07 06:26:39;;;;;;;23.58;12.32;;;;;;;;;;5052447;28;20028;-58
2022/12/07 06:29:04;;;;;;;29.35;13.30;;;;;;;;;;5071244;28;20453;-58
2022/12/07 06:31:30;;;;;;;24.95;12.95;;;;;;;;;;5050327;28;20025;-58
2022/12/07 06:33:59;;;;;;;25.85;13.23;;;;;;;;;;5070006;28;20098;-58
2022/12/07 06:36:25;;;;;;;24.20;12.85;;;;;;;;;;5073866;28;20036;-59
2022/12/07 06:38:51;;;;;;;27.25;13.07;;;;;;;;;;5074237;28;20102;-59
2022/12/07 06:41:16;;;;;;;27.58;12.88;;;;;;;;;;5074645;28;20116;-56
2022/12/07 06:43:41;;;;;;;28.00;12.20;;;;;;;;;;5073417;28;20362;-58
2022/12/07 06:46:07;;;;;;;24.92;12.38;;;;;;;;;;5074565;28;20059;-57
2022/12/07 06:48:32;;;;;;;24.45;12.77;;;;;;;;;;5072688;28;20041;-57
2022/12/07 06:50:58;;;;;;;21.58;11.25;;;;;;;;;;5074601;28;20449;-58
2022/12/07 06:53:23;;;;;;;25.70;13.73;;;;;;;;;;5074427;28;20032;-58
2022/12/07 06:55:49;;;;;;;21.63;12.65;;;;;;;;;;5073285;28;20071;-58
2022/12/07 06:58:14;;;;;;;23.23;12.45;;;;;;;;;;5074382;28;20040;-57
2022/12/07 07:00:40;;;;;;;24.60;12.05;;;;;;;;;;5073371;28;20024;-59
2022/12/07 07:03:06;;;;;;;24.75;13.15;;;;;;;;;;5072717;28;20115;-56
2022/12/07 07:05:31;;;;;;;29.00;12.55;;;;;;;;;;5073243;28;20028;-60
2022/12/07 07:07:57;;;;;;;22.42;11.27;;;;;;;;;;5074351;28;20031;-61
2022/12/07 07:10:22;;;;;;;18.92;11.80;;;;;;;;;;5074390;28;20044;-60
2022/12/07 07:12:47;;;;;;;25.13;11.25;;;;;;;;;;5072146;28;20031;-60
2022/12/07 07:15:13;;;;;;;20.85;10.88;;;;;;;;;;5073432;28;20039;-59
2022/12/07 07:17:38;;;;;;;24.80;11.48;;;;;;;;;;5073168;28;20025;-62
2022/12/07 07:20:05;;;;;;;22.40;11.75;;;;;;;;;;5074040;28;20457;-60
2022/12/07 07:22:30;;;;;;;22.88;11.20;;;;;;;;;;5072878;28;20093;-60
2022/12/07 07:24:55;;;;;;;19.58;11.80;;;;;;;;;;5073751;28;20082;-60
2022/12/07 07:27:21;;;;;;;20.77;11.60;;;;;;;;;;5073806;28;20036;-60
2022/12/07 07:29:46;;;;;;;24.40;10.90;;;;;;;;;;5049746;28;20484;-59
2022/12/07 07:32:12;;;;;;;25.55;12.45;;;;;;;;;;5073465;28;20024;-60
2022/12/07 07:34:37;;;;;;;24.75;12.13;;;;;;;;;;5054731;28;20029;-59
2022/12/07 07:37:03;;;;;;;24.23;13.10;;;;;;;;;;5073646;28;20103;-60
2022/12/07 07:39:28;;;;;;;29.42;12.57;;;;;;;;;;5073089;28;20028;-61
2022/12/07 07:41:54;;;;;;;23.10;12.45;;;;;;;;;;5055133;28;20029;-59
2022/12/07 07:44:19;;;;;;;23.73;12.63;;;;;;;;;;5072399;28;20108;-60
2022/12/07 07:46:44;;;;;;;26.27;12.48;;;;;;;;;;5071771;28;20028;-61
2022/12/07 07:49:10;;;;;;;25.55;12.10;;;;;;;;;;5073106;28;20024;-60
2022/12/07 07:51:36;;;;;;;27.92;12.45;;;;;;;;;;5049680;28;20385;-61
2022/12/07 07:54:02;;;;;;;25.08;12.65;;;;;;;;;;5053036;28;20120;-61
2022/12/07 07:56:27;;;;;;;25.08;12.60;;;;;;;;;;5053236;28;20394;-61
2022/12/07 07:58:53;;;;;;;20.38;11.70;;;;;;;;;;5052425;28;20061;-61
2022/12/07 08:01:19;;;;;;;26.80;13.30;;;;;;;;;;5053069;28;20040;-61
2022/12/07 08:03:46;;;;;;;28.63;13.95;;;;;;;;;;5034285;28;20354;-60
2022/12/07 08:06:11;;;;;;;27.52;13.70;;;;;;;;;;5064106;28;20036;-60
2022/12/07 08:08:37;;;;;;;28.98;13.85;;;;;;;;;;5054296;28;20039;-60
2022/12/07 08:11:06;;;;;;;24.98;12.93;;;;;;;;;;5072864;28;20033;-61
2022/12/07 08:13:32;;;;;;;31.55;14.65;;;;;;;;;;5069699;28;20036;-61
2022/12/07 08:15:58;;;;;;;29.50;14.65;;;;;;;;;;5072567;28;20107;-60
2022/12/07 08:18:23;;;;;;;29.85;14.10;;;;;;;;;;5073220;28;20415;-60
2022/12/07 08:20:49;;;;;;;32.97;15.10;;;;;;;;;;5072246;28;20565;-60
2022/12/07 08:23:14;;;;;;;30.23;14.45;;;;;;;;;;5072714;28;20032;-59
2022/12/07 08:25:40;;;;;;;28.58;14.77;;;;;;;;;;5071672;28;20035;-60
2022/12/07 08:28:06;;;;;;;28.45;14.07;;;;;;;;;;5070991;28;20020;-60
2022/12/07 08:30:32;;;;;;;29.10;13.35;;;;;;;;;;5072064;28;20028;-61
2022/12/07 08:32:58;;;;;;;26.75;13.70;;;;;;;;;;5072170;28;20036;-60
2022/12/07 08:35:24;;;;;;;28.15;12.88;;;;;;;;;;5072397;28;20028;-60
2022/12/07 08:37:49;;;;;;;26.08;13.50;;;;;;;;;;5053778;28;20499;-60
2022/12/07 08:40:15;;;;;;;24.65;12.40;;;;;;;;;;5054549;28;20094;-60
2022/12/07 08:42:44;;;;;;;23.33;12.48;;;;;;;;;;5070367;28;20158;-60
2022/12/07 08:45:13;;;;;;;25.55;12.48;;;;;;;;;;5072228;28;20450;-60
2022/12/07 08:47:47;;;;;;;23.88;11.27;;;;;;;;;;5053415;28;20412;-60
2022/12/07 08:50:13;;;;;;;23.73;12.63;;;;;;;;;;5072220;28;20031;-60
2022/12/07 08:52:40;;;;;;;25.20;11.63;;;;;;;;;;5071274;28;20107;-61
2022/12/07 08:55:06;;;;;;;23.65;11.30;;;;;;;;;;5071466;28;20388;-60
2022/12/07 08:57:34;;;;;;;21.23;10.25;;;;;;;;;;5071293;28;20029;-59
2022/12/07 08:59:59;;;;;;;17.38;8.80;;;;;;;;;;5071550;28;20032;-60
2022/12/07 09:02:25;;;;;;;13.02;7.18;;;;;;;;;;5054100;28;20032;-61
2022/12/07 09:04:51;;;;;;;15.43;7.30;;;;;;;;;;5070705;28;20107;-59
2022/12/07 09:07:16;;;;;;;13.20;6.68;;;;;;;;;;5072012;28;20419;-59
2022/12/07 09:09:42;;;;;;;13.45;6.93;;;;;;;;;;5070915;28;20473;-60
2022/12/07 09:12:07;;;;;;;14.52;7.22;;;;;;;;;;5070704;28;20048;-59
2022/12/07 09:14:33;;;;;;;15.25;6.78;;;;;;;;;;5069211;28;20126;-60
2022/12/07 09:17:09;;;;;;;9.52;5.40;;;;;;;;;;5071080;28;20124;-59
2022/12/07 09:19:34;;;;;;;14.07;7.22;;;;;;;;;;5071444;28;20024;-60
2022/12/07 09:22:00;;;;;;;16.20;6.25;;;;;;;;;;5071172;28;20025;-59
2022/12/07 09:24:26;;;;;;;15.57;6.80;;;;;;;;;;5071493;28;20036;-60
2022/12/07 09:26:51;;;;;;;15.68;6.80;;;;;;;;;;5070682;28;20024;-59
2022/12/07 09:29:16;;;;;;;14.23;5.75;;;;;;;;;;5071023;28;20028;-61
2022/12/07 09:31:42;;;;;;;10.90;5.45;;;;;;;;;;5068383;28;20047;-59
2022/12/07 09:34:07;;;;;;;15.13;6.28;;;;;;;;;;5071336;28;20060;-59
2022/12/07 09:36:33;;;;;;;12.45;4.80;;;;;;;;;;5071266;28;20056;-60
2022/12/07 09:38:58;;;;;;;12.55;5.78;;;;;;;;;;5070858;28;20064;-63
2022/12/07 09:41:26;;;;;;;11.60;5.80;;;;;;;;;;5071677;28;20028;-61
2022/12/07 09:43:53;;;;;;;13.50;4.70;;;;;;;;;;5070001;28;20043;-60
2022/12/07 09:46:20;;;;;;;14.38;6.07;;;;;;;;;;5071735;28;20480;-60
2022/12/07 09:48:46;;;;;;;12.23;5.45;;;;;;;;;;5070556;28;20595;-59
2022/12/07 09:51:17;;;;;;;10.77;5.05;;;;;;;;;;5071921;28;20089;-60
2022/12/07 09:53:43;;;;;;;13.93;5.40;;;;;;;;;;5070787;28;20062;-60
2022/12/07 09:56:13;;;;;;;11.52;4.72;;;;;;;;;;5071694;28;20802;-60
2022/12/07 09:58:38;;;;;;;14.15;4.53;;;;;;;;;;5069793;28;20028;-61
2022/12/07 10:01:07;;;;;;;9.55;4.00;;;;;;;;;;5053542;28;20032;-59
2022/12/07 10:03:33;;;;;;;9.82;3.88;;;;;;;;;;5072044;28;20468;-60
2022/12/07 10:05:59;;;;;;;13.73;5.00;;;;;;;;;;5052775;28;20060;-60
2022/12/07 10:08:25;;;;;;;13.07;5.00;;;;;;;;;;5071221;28;20063;-60
2022/12/07 10:10:56;;;;;;;10.27;4.47;;;;;;;;;;5055077;28;20075;-60
2022/12/07 10:13:39;;;;;;;13.20;4.38;;;;;;;;;;5073472;28;20044;-60
2022/12/07 10:16:05;;;;;;;11.45;4.15;;;;;;;;;;5075062;28;20108;-60
2022/12/07 10:18:41;;;;;;;8.15;3.30;;;;;;;;;;5075079;28;20032;-61
2022/12/07 10:21:38;;;;;;;12.75;3.90;;;;;;;;;;5074260;28;20032;-61
2022/12/07 10:24:19;;;;;;;12.43;4.00;;;;;;;;;;5019354;28;20045;-61
2022/12/07 10:26:47;;;;;;;8.75;3.38;;;;;;;;;;5074032;28;20581;-59
2022/12/07 10:29:21;;;;;;;10.15;4.10;;;;;;;;;;5074874;28;20032;-61
2022/12/07 10:31:55;;;;;;;11.50;4.40;;;;;;;;;;5073919;28;20464;-61
2022/12/07 10:34:34;;;;;;;6.45;3.20;;;;;;;;;;5075190;28;20032;-61
2022/12/07 10:37:09;;;;;;;8.85;3.47;;;;;;;;;;5073407;28;20033;-60
2022/12/07 10:39:50;;;;;;;7.63;3.80;;;;;;;;;;5056789;28;20111;-61
2022/12/07 10:42:21;;;;;;;9.82;3.70;;;;;;;;;;5074544;28;20037;-61
2022/12/07 10:44:47;;;;;;;;;;;;;;;;;;5073787;28;20430;-61
2022/12/07 10:47:34;;;;;;;7.65;3.15;;;;;;;;;;5074665;28;19997;-61
2022/12/07 10:50:35;;;;;;;7.43;3.55;;;;;;;;;;5073491;28;20496;-61
2022/12/07 10:53:09;;;;;;;9.73;3.22;;;;;;;;;;5073735;28;20027;-60
2022/12/07 10:55:49;;;;;;;8.45;3.42;;;;;;;;;;5074154;28;20055;-60
2022/12/07 10:58:23;;;;;;;10.43;3.60;;;;;;;;;;5074157;28;20462;-60
2022/12/07 11:01:12;;;;;;;8.77;3.60;;;;;;;;;;5073379;28;20436;-60
2022/12/07 11:04:31;;;;;;;10.75;3.20;;;;;;;;;;5074379;28;20025;-60
2022/12/07 11:07:51;;;;;;;10.55;4.43;;;;;;;;;;5010518;28;20045;-60
2022/12/07 11:10:34;;;;;;;12.18;3.88;;;;;;;;;;4953705;29;20385;-60
2022/12/07 11:13:02;;;;;;;9.38;2.92;;;;;;;;;;5044316;28;20041;-60
2022/12/07 11:15:55;;;;;;;8.57;3.40;;;;;;;;;;5053540;28;20059;-60
2022/12/07 11:18:33;;;;;;;10.95;4.10;;;;;;;;;;5035887;28;20069;-61
2022/12/07 11:21:29;;;;;;;6.72;3.50;;;;;;;;;;5057424;28;20494;-59
2022/12/07 11:24:03;;;;;;;14.75;4.35;;;;;;;;;;5073070;28;20082;-60
2022/12/07 11:26:41;;;;;;;8.20;3.65;;;;;;;;;;5073822;28;20465;-60
2022/12/07 11:29:41;;;;;;;9.95;3.92;;;;;;;;;;5073371;28;20120;-60
2022/12/07 11:32:28;;;;;;;9.50;3.25;;;;;;;;;;5072791;28;20016;-60
2022/12/07 11:35:08;;;;;;;8.43;2.75;;;;;;;;;;5071979;28;20035;-61
2022/12/07 11:37:37;;;;;;;8.07;3.25;;;;;;;;;;5072383;28;20040;-61
2022/12/07 11:40:27;;;;;;;9.90;2.97;;;;;;;;;;5072747;28;20063;-61
2022/12/07 11:43:01;;;;;;;6.25;3.13;;;;;;;;;;5072766;28;20107;-61
2022/12/07 11:45:30;;;;;;;8.52;3.47;;;;;;;;;;5073147;28;20435;-60
2022/12/07 11:48:24;;;;;;;10.60;2.83;;;;;;;;;;5072433;28;20033;-61
2022/12/07 11:50:56;;;;;;;5.53;2.65;;;;;;;;;;5069126;28;20085;-60
2022/12/07 11:53:52;;;;;;;8.40;3.20;;;;;;;;;;5073458;28;20072;-60
2022/12/07 11:56:22;;;;;;;8.50;3.20;;;;;;;;;;5072884;28;20051;-61
2022/12/07 11:58:48;;;;;;;7.60;3.13;;;;;;;;;;5072431;28;20073;-61
2022/12/07 12:01:15;;;;;;;9.70;3.00;;;;;;;;;;5055330;28;20025;-60
2022/12/07 12:03:46;;;;;;;6.38;2.90;;;;;;;;;;5054195;28;20047;-61
2022/12/07 12:06:12;;;;;;;6.68;2.88;;;;;;;;;;5073004;28;20040;-61
2022/12/07 12:08:54;;;;;;;6.75;2.88;;;;;;;;;;5073109;28;20362;-60
2022/12/07 12:11:46;;;;;;;6.78;3.40;;;;;;;;;;5072978;28;20028;-61
2022/12/07 12:14:28;;;;;;;10.30;3.30;;;;;;;;;;5072702;28;20031;-60
2022/12/07 12:17:03;;;;;;;6.05;3.00;;;;;;;;;;5071712;28;20111;-61
2022/12/07 12:20:00;;;;;;;6.88;3.00;;;;;;;;;;5072113;28;20040;-60
2022/12/07 12:22:34;;;;;;;18.60;3.25;;;;;;;;;;5072828;28;20115;-60
2022/12/07 12:25:04;;;;;;;8.63;3.08;;;;;;;;;;5071505;28;20032;-60
2022/12/07 12:27:34;;;;;;;6.25;2.50;;;;;;;;;;5072687;28;20465;-60
2022/12/07 12:30:25;;;;;;;6.18;2.80;;;;;;;;;;5070820;28;20028;-61
2022/12/07 12:32:51;;;;;;;13.35;3.60;;;;;;;;;;5071017;28;20043;-61
2022/12/07 12:35:30;;;;;;;4.65;2.28;;;;;;;;;;5072111;28;20033;-59
2022/12/07 12:38:21;;;;;;;5.68;2.63;;;;;;;;;;5071373;28;20143;-60
2022/12/07 12:40:46;;;;;;;;;;;;;;;;;;5071098;28;20035;-60
2022/12/07 12:43:45;;;;;;;3.15;2.00;;;;;;;;;;5072183;28;19912;-60
2022/12/07 12:46:29;;;;;;;6.47;2.40;;;;;;;;;;5071433;28;20028;-58
2022/12/07 12:49:13;;;;;;;9.85;3.17;;;;;;;;;;5071414;28;20037;-60
2022/12/07 12:51:41;;;;;;;6.63;2.40;;;;;;;;;;5072338;28;20060;-59
2022/12/07 12:54:18;;;;;;;4.97;2.20;;;;;;;;;;5070886;28;20037;-59
2022/12/07 12:56:48;;;;;;;6.35;2.65;;;;;;;;;;5072200;28;20052;-59
2022/12/07 12:59:26;;;;;;;10.43;2.63;;;;;;;;;;5071626;28;20020;-59
2022/12/07 13:01:56;;;;;;;7.43;2.70;;;;;;;;;;5071384;28;20051;-60
2022/12/07 13:04:23;;;;;;;8.68;2.63;;;;;;;;;;5070943;28;20028;-59
2022/12/07 13:06:50;;;;;;;7.85;2.47;;;;;;;;;;5071364;28;20056;-60
2022/12/07 13:09:22;;;;;;;8.10;2.30;;;;;;;;;;5071936;28;20036;-61
2022/12/07 13:11:49;;;;;;;4.15;1.70;;;;;;;;;;5071843;28;20028;-61
2022/12/07 13:14:41;;;;;;;6.13;2.15;;;;;;;;;;5071500;28;20040;-61
2022/12/07 13:17:32;;;;;;;6.20;1.98;;;;;;;;;;5070375;28;20074;-60
2022/12/07 13:20:01;;;;;;;12.70;2.15;;;;;;;;;;5071020;28;20090;-61
2022/12/07 13:22:30;;;;;;;6.20;2.45;;;;;;;;;;5071789;28;20024;-61
2022/12/07 13:25:31;;;;;;;6.05;2.03;;;;;;;;;;5070864;28;20499;-61
2022/12/07 13:28:15;;;;;;;;;;;;;;;;;;5071410;28;20130;-60
2022/12/07 13:31:10;;;;;;;8.07;1.83;;;;;;;;;;5071618;28;19915;-60
2022/12/07 13:33:35;;;;;;;8.88;2.40;;;;;;;;;;5067559;28;20044;-62
2022/12/07 13:36:02;;;;;;;11.73;2.70;;;;;;;;;;5070889;28;20036;-61
2022/12/07 13:38:32;;;;;;;7.45;2.47;;;;;;;;;;5071986;28;20537;-59
2022/12/07 13:41:04;;;;;;;7.57;2.47;;;;;;;;;;5070899;28;20032;-60
2022/12/07 13:43:29;;;;;;;9.43;2.30;;;;;;;;;;5071467;28;20082;-61
2022/12/07 13:46:00;;;;;;;8.45;2.58;;;;;;;;;;5055183;28;20533;-60
2022/12/07 13:48:48;;;;;;;5.47;2.30;;;;;;;;;;5071896;28;20040;-61
2022/12/07 13:51:28;;;;;;;8.57;3.03;;;;;;;;;;5075025;28;20040;-61
2022/12/07 13:54:10;;;;;;;8.73;2.63;;;;;;;;;;5074911;28;20028;-61
2022/12/07 13:56:36;;;;;;;5.07;2.50;;;;;;;;;;5075288;28;20052;-61
2022/12/07 13:59:04;;;;;;;9.57;2.92;;;;;;;;;;5074657;28;20054;-62
2022/12/07 14:01:33;;;;;;;11.27;2.97;;;;;;;;;;5075142;28;20032;-62
2022/12/07 14:04:37;;;;;;;10.10;3.65;;;;;;;;;;5073483;28;20028;-61
2022/12/07 14:07:20;;;;;;;10.75;3.65;;;;;;;;;;5074235;28;20453;-61
2022/12/07 14:09:58;;;;;;;9.27;3.50;;;;;;;;;;5057394;28;20169;-61
2022/12/07 14:12:25;;;;;;;7.20;3.45;;;;;;;;;;5075606;28;20036;-62
2022/12/07 14:14:52;;;;;;;6.10;3.25;;;;;;;;;;5074665;28;20040;-61
2022/12/07 14:17:20;;;;;;;11.55;4.20;;;;;;;;;;5073752;28;20103;-61
2022/12/07 14:19:49;;;;;;;9.80;2.92;;;;;;;;;;5075028;28;20032;-61
2022/12/07 14:22:24;;;;;;;10.90;2.97;;;;;;;;;;5074014;28;20507;-61
2022/12/07 14:24:49;;;;;;;11.77;3.70;;;;;;;;;;5057201;28;20033;-61
2022/12/07 14:27:20;;;;;;;6.70;3.47;;;;;;;;;;5073050;28;20024;-61
2022/12/07 14:29:46;;;;;;;6.05;2.97;;;;;;;;;;5074630;28;20390;-61
2022/12/07 14:32:34;;;;;;;8.82;3.58;;;;;;;;;;5056096;28;20353;-61
2022/12/07 14:35:12;;;;;;;7.20;3.05;;;;;;;;;;5073900;28;20036;-61
2022/12/07 14:37:40;;;;;;;8.13;3.63;;;;;;;;;;5074629;28;20094;-59
2022/12/07 14:40:06;;;;;;;6.30;3.50;;;;;;;;;;5073723;28;20541;-61
2022/12/07 14:42:34;;;;;;;8.77;3.67;;;;;;;;;;5055948;28;20445;-60
2022/12/07 14:44:59;;;;;;;7.25;3.78;;;;;;;;;;5055691;28;20040;-61
2022/12/07 14:47:26;;;;;;;5.57;3.60;;;;;;;;;;5074494;28;20028;-60
2022/12/07 14:49:52;;;;;;;11.35;3.53;;;;;;;;;;5074500;28;20041;-60
2022/12/07 14:52:21;;;;;;;10.23;3.90;;;;;;;;;;5073349;28;20032;-61